University Park Airport
KUNV : rendu visible

Aérodrome :











RETROUVEZ-NOUS SUR...

 
LOGIN :

S'inscrire | Disclaimer

   EN    FR    IT 

 









Légende :    VFR   VFR Marginal   IFR   IFR Intensif   IFR Très Intensif
Visi : 
Plafond : 
>= 8 km
>= 3000ft
5 à 8 km
1000 à 3000 ft
1500m à 5 km
500 à 1000 ft
800 à 1500m
200 à 500 ft
< 800m
< 200 ft
Symboles :   Orages  Brouillard  Fortes neiges  Fortes précipitations  Vent > 20 kt






- Altitude de l'aérodrome : 1239 ft


KUNV - University Park

DERNIER METAR :
  • 220438Z AUTO 23004KT 10SM OVC037 07/02 A2988 RMK AO2 T00690019

METARs EXPIRÉS :
  • 220415Z AUTO 29003KT 10SM OVC039 07/02 A2989 RMK AO2 T00700024
  • 220356Z AUTO 21003KT 10SM OVC041 07/02 A2989 RMK AO2 T00730020 400821022
  • 220335Z AUTO 21004KT 10SM -RA OVC045 07/02 A2991 RMK AO2 T00730017
  • 220317Z AUTO 21004KT 10SM OVC045 07/03 A2992 RMK AO2 T00660026
  • 220253Z 24007KT 7SM -DZ OVC047 08/00 A2993
  • 220153Z 21007KT 10SM OVC070 08/00 A2992

TAF KUNV
Valide du 22 à 03h jusqu'au 23 à 00h UTC


220325Z 2203/2224 22007KT P6SM VCSH OVC040
FM220800 25007G15KT P6SM VCSH OVC035
FM221300 27014G25KT P6SM VCSH OVC040
FM221900 30015G25KT P6SM SCT040



MET'MAP, la Météo Aéronautique d'un coup d'oeil ! - Copyright ORBIFLY Décembre 2007 - Disclaimer

ORBIFLY MET'MAP TEAM :

Programmation & Développement : Alexandra Zaïnal
Conception & Développement : Baudouin d'Aumeries
Co-Programmation & Développement : Marc-Olivier Méhu
Soutien technique & logistique : Manuel Goepfert

Contact : metmap@orbifly.com




SOURCES & CREDITS :

   NOAA       Earth
Advisory